createdAt,value
2023-01-28T00:00:18.040Z,19.57
2023-01-28T00:01:18.094Z,19.57
2023-01-28T00:02:18.129Z,19.57
2023-01-28T00:03:18.147Z,19.57
2023-01-28T00:04:18.160Z,19.57
2023-01-28T00:05:18.179Z,19.56
2023-01-28T00:06:18.211Z,19.57
2023-01-28T00:07:18.248Z,19.57
2023-01-28T00:08:18.269Z,19.56
2023-01-28T00:09:18.300Z,19.56
2023-01-28T00:10:18.338Z,19.56
2023-01-28T00:11:18.367Z,19.56
2023-01-28T00:12:18.393Z,19.56
2023-01-28T00:13:18.424Z,19.56
2023-01-28T00:14:18.466Z,19.56
2023-01-28T00:15:18.492Z,19.56
2023-01-28T00:16:18.571Z,19.56
2023-01-28T00:17:18.556Z,19.56
2023-01-28T00:18:18.581Z,19.57
2023-01-28T00:19:18.610Z,19.56
2023-01-28T00:20:18.635Z,19.56
2023-01-28T00:21:18.726Z,19.56
2023-01-28T00:22:18.697Z,19.56
2023-01-28T00:23:18.727Z,19.56
2023-01-28T00:24:18.754Z,19.56
2023-01-28T00:25:18.775Z,19.56
2023-01-28T00:26:18.808Z,19.56
2023-01-28T00:27:18.829Z,19.55
2023-01-28T00:28:18.907Z,19.56
2023-01-28T00:29:18.871Z,19.56
2023-01-28T00:30:18.991Z,19.56
2023-01-28T00:31:18.943Z,19.56
2023-01-28T00:32:18.968Z,19.55
2023-01-28T00:33:18.995Z,19.56
2023-01-28T00:34:19.025Z,19.55
2023-01-28T00:35:19.042Z,19.56
2023-01-28T00:36:19.063Z,19.55
2023-01-28T00:37:19.095Z,19.56
2023-01-28T00:38:19.124Z,19.56
2023-01-28T00:39:19.160Z,19.55
2023-01-28T00:40:19.180Z,19.56
2023-01-28T00:41:19.269Z,19.56
2023-01-28T00:42:19.237Z,19.56
2023-01-28T00:43:19.264Z,19.56
2023-01-28T00:44:19.302Z,19.56
2023-01-28T00:45:19.333Z,19.56
2023-01-28T00:46:19.397Z,19.55
2023-01-28T00:47:19.379Z,19.56
2023-01-28T00:48:19.450Z,19.56
2023-01-28T00:49:19.427Z,19.55
2023-01-28T00:50:19.528Z,19.56
2023-01-28T00:51:19.482Z,19.55
2023-01-28T00:52:19.520Z,19.55
2023-01-28T00:53:19.544Z,19.55
2023-01-28T00:54:19.564Z,19.56
2023-01-28T00:55:19.621Z,19.55
2023-01-28T00:56:19.717Z,19.56
2023-01-28T00:57:19.644Z,19.55
2023-01-28T00:58:19.673Z,19.55
2023-01-28T00:59:19.700Z,19.55
2023-01-28T01:00:19.727Z,19.55
2023-01-28T01:01:19.812Z,19.55
2023-01-28T01:02:19.801Z,19.55
2023-01-28T01:03:19.807Z,19.55
2023-01-28T01:04:19.843Z,19.54
2023-01-28T01:05:19.868Z,19.54
2023-01-28T01:06:19.975Z,19.54
2023-01-28T01:07:19.929Z,19.54
2023-01-28T01:08:20.784Z,19.54
2023-01-28T01:09:19.995Z,19.54
2023-01-28T01:10:20.031Z,19.55
2023-01-28T01:11:20.041Z,19.55
2023-01-28T01:12:20.071Z,19.55
2023-01-28T01:13:20.097Z,19.55
2023-01-28T01:14:20.196Z,19.55
2023-01-28T01:15:20.177Z,19.55
2023-01-28T01:16:20.254Z,19.55
2023-01-28T01:17:20.230Z,19.54
2023-01-28T01:18:20.256Z,19.54
2023-01-28T01:19:20.290Z,19.54
2023-01-28T01:20:20.332Z,19.53
2023-01-28T01:21:20.409Z,19.55
2023-01-28T01:22:20.428Z,19.54
2023-01-28T01:23:20.420Z,19.54
2023-01-28T01:24:20.544Z,19.54
2023-01-28T01:25:20.483Z,19.53
2023-01-28T01:26:20.524Z,19.54
2023-01-28T01:27:20.554Z,19.53
2023-01-28T01:28:20.586Z,19.53
2023-01-28T01:29:20.621Z,19.53
2023-01-28T01:30:20.651Z,19.54
2023-01-28T01:31:20.798Z,19.54
2023-01-28T01:32:20.705Z,19.53
2023-01-28T01:33:20.745Z,19.53
2023-01-28T01:34:20.767Z,19.53
2023-01-28T01:35:20.831Z,19.53
2023-01-28T01:36:20.831Z,19.53
2023-01-28T01:37:20.851Z,19.53
2023-01-28T01:38:20.903Z,19.53
2023-01-28T01:39:20.924Z,19.53
2023-01-28T01:40:20.948Z,19.53
2023-01-28T01:41:20.981Z,19.52
2023-01-28T01:42:21.005Z,19.53
2023-01-28T01:43:21.028Z,19.53
2023-01-28T01:44:21.139Z,19.52
2023-01-28T01:45:21.085Z,19.53
2023-01-28T01:46:21.185Z,19.52
2023-01-28T01:47:21.157Z,19.52
2023-01-28T01:48:21.193Z,19.53
2023-01-28T01:49:21.220Z,19.52
2023-01-28T01:50:21.242Z,19.52
2023-01-28T01:51:21.279Z,19.52
2023-01-28T01:52:21.306Z,19.52
2023-01-28T01:53:21.334Z,19.52
2023-01-28T01:55:21.401Z,19.52
2023-01-28T01:56:21.436Z,19.52
2023-01-28T01:57:21.465Z,19.51
2023-01-28T01:58:21.495Z,19.53
2023-01-28T01:59:22.293Z,19.53
2023-01-28T02:00:21.626Z,19.52
2023-01-28T02:01:21.802Z,19.52
2023-01-28T02:02:21.650Z,19.53
2023-01-28T02:03:21.686Z,19.52
2023-01-28T02:04:21.655Z,19.52
2023-01-28T02:05:22.333Z,19.52
2023-01-28T02:06:21.706Z,19.52
2023-01-28T02:07:21.776Z,19.51
2023-01-28T02:08:21.789Z,19.52
2023-01-28T02:09:21.801Z,19.51
2023-01-28T02:10:21.886Z,19.51
2023-01-28T02:11:21.861Z,19.52
2023-01-28T02:12:21.887Z,19.52
2023-01-28T02:13:22.809Z,19.51
2023-01-28T02:14:30.572Z,19.52
2023-01-28T02:15:22.948Z,19.51
2023-01-28T02:16:22.041Z,19.52
2023-01-28T02:17:22.333Z,19.52
2023-01-28T02:18:21.977Z,19.52
2023-01-28T02:19:21.984Z,19.52
2023-01-28T02:20:22.007Z,19.51
2023-01-28T02:21:21.999Z,19.52
2023-01-28T02:22:22.020Z,19.52
2023-01-28T02:23:22.030Z,19.52
2023-01-28T04:07:25.853Z,19.47
2023-01-28T04:13:25.580Z,19.45
2023-01-28T04:14:25.603Z,19.46
2023-01-28T04:15:25.628Z,19.47
2023-01-28T04:16:25.729Z,19.46
2023-01-28T04:17:25.733Z,19.46
2023-01-28T04:18:25.789Z,19.46
2023-01-28T04:19:25.789Z,19.46
2023-01-28T04:20:25.826Z,19.46
2023-01-28T04:21:25.849Z,19.46
2023-01-28T04:22:25.878Z,19.46
2023-01-28T04:23:25.921Z,19.45
2023-01-28T04:24:26.011Z,19.46
2023-01-28T04:25:26.008Z,19.46
2023-01-28T04:26:26.039Z,19.46
2023-01-28T04:27:26.075Z,19.46
2023-01-28T04:28:26.116Z,19.45
2023-01-28T04:29:26.158Z,19.45
2023-01-28T04:30:26.256Z,19.45
2023-01-28T04:31:26.250Z,19.45
2023-01-28T04:32:26.258Z,19.45
2023-01-28T04:33:26.298Z,19.44
2023-01-28T04:34:26.337Z,19.44
2023-01-28T04:35:26.366Z,19.45
2023-01-28T04:36:26.394Z,19.45
2023-01-28T04:37:26.442Z,19.44
2023-01-28T04:38:26.474Z,19.44
2023-01-28T04:39:26.541Z,19.45
2023-01-28T04:40:26.551Z,19.44
2023-01-28T04:41:26.585Z,19.45
2023-01-28T04:42:26.619Z,19.45
2023-01-28T04:43:26.650Z,19.46
2023-01-28T04:44:26.691Z,19.45
2023-01-28T04:45:26.731Z,19.44
2023-01-28T04:46:26.774Z,19.46
2023-01-28T04:47:26.797Z,19.45
2023-01-28T04:48:26.847Z,19.45
2023-01-28T08:17:35.540Z,19.39
2023-01-28T08:18:35.574Z,19.39
2023-01-28T08:19:35.607Z,19.39
2023-01-28T08:20:35.648Z,19.39
2023-01-28T08:21:35.686Z,19.39
2023-01-28T08:22:35.732Z,19.39
2023-01-28T08:23:35.778Z,19.40
2023-01-28T08:24:35.882Z,19.40
2023-01-28T08:25:35.899Z,19.39
2023-01-28T08:32:36.110Z,19.39
2023-01-28T08:34:36.195Z,19.39
2023-01-28T08:35:36.222Z,19.39
2023-01-28T08:37:36.334Z,19.39
2023-01-28T08:47:36.687Z,19.40
2023-01-28T08:48:36.726Z,19.40
2023-01-28T08:49:36.765Z,19.40
2023-01-28T08:50:36.875Z,19.40
2023-01-28T08:51:36.854Z,19.39
2023-01-28T08:52:36.904Z,19.39
2023-01-28T08:53:36.931Z,19.39
2023-01-28T08:54:36.969Z,19.40
2023-01-28T08:55:36.995Z,19.39
2023-01-28T08:56:37.017Z,19.40
2023-01-28T08:57:37.136Z,19.40
2023-01-28T08:58:37.099Z,19.41
2023-01-28T08:59:37.111Z,19.41
2023-01-28T09:00:37.158Z,19.41
2023-01-28T09:01:37.221Z,19.41
2023-01-28T09:02:37.197Z,19.41
2023-01-28T09:03:37.312Z,19.42
2023-01-28T09:04:37.265Z,19.42
2023-01-28T09:05:37.324Z,19.42
2023-01-28T09:06:37.314Z,19.42
2023-01-28T09:07:37.393Z,19.42
2023-01-28T09:08:37.373Z,19.42
2023-01-28T09:09:37.381Z,19.42
2023-01-28T09:10:37.421Z,19.43
2023-01-28T09:11:37.431Z,19.43
2023-01-28T09:12:37.466Z,19.42
2023-01-28T09:13:37.489Z,19.44
2023-01-28T09:14:37.514Z,19.42
2023-01-28T09:15:37.546Z,19.42
2023-01-28T09:16:37.590Z,19.43
2023-01-28T09:17:37.611Z,19.43
2023-01-28T09:18:37.624Z,19.42
2023-01-28T09:19:37.652Z,19.42
2023-01-28T09:20:37.683Z,19.43
2023-01-28T09:21:37.720Z,19.42
2023-01-28T12:39:45.550Z,19.45
2023-01-28T12:40:45.583Z,19.44
2023-01-28T12:41:45.641Z,19.45
2023-01-28T12:42:45.678Z,19.44
2023-01-28T12:43:45.718Z,19.44
2023-01-28T12:44:45.768Z,19.44
2023-01-28T12:45:45.814Z,19.44
2023-01-28T12:46:45.991Z,19.44
2023-01-28T12:47:45.888Z,19.45
2023-01-28T12:48:45.931Z,19.44
2023-01-28T12:49:45.988Z,19.45
2023-01-28T12:50:46.037Z,19.44
2023-01-28T12:51:46.152Z,19.44
2023-01-28T12:52:46.147Z,19.43
2023-01-28T12:53:46.174Z,19.43
2023-01-28T12:54:46.187Z,19.43
2023-01-28T12:55:46.198Z,19.43
2023-01-28T12:56:46.354Z,19.44
2023-01-28T12:57:46.225Z,19.43
2023-01-28T12:58:46.250Z,19.43
2023-01-28T12:59:46.239Z,19.42
2023-01-28T13:00:46.257Z,19.42
2023-01-28T13:01:46.311Z,19.43
2023-01-28T13:02:46.348Z,19.42
2023-01-28T13:03:46.310Z,19.42
2023-01-28T13:04:46.306Z,19.42
2023-01-28T13:05:46.329Z,19.42
2023-01-28T13:06:46.331Z,19.42
2023-01-28T13:12:46.437Z,19.42
2023-01-28T13:13:46.507Z,19.43
2023-01-28T13:14:46.537Z,19.42
2023-01-28T13:15:46.588Z,19.43
2023-01-28T13:16:46.658Z,19.43
2023-01-28T13:17:46.696Z,19.42
2023-01-28T13:18:46.810Z,19.43
2023-01-28T13:19:46.848Z,19.43
2023-01-28T13:20:46.854Z,19.43
2023-01-28T13:21:49.460Z,19.42
2023-01-28T13:22:46.925Z,19.42
2023-01-28T13:23:46.959Z,19.43
2023-01-28T13:24:46.966Z,19.42
2023-01-28T14:01:47.520Z,19.42
2023-01-28T14:02:47.492Z,19.42
2023-01-28T14:03:47.510Z,19.42
2023-01-28T14:04:47.555Z,19.43
2023-01-28T14:05:47.552Z,19.42
2023-01-28T14:06:47.546Z,19.43
2023-01-28T14:07:47.572Z,19.43
2023-01-28T14:08:47.643Z,19.42
2023-01-28T14:09:47.653Z,19.41
2023-01-28T14:10:47.619Z,19.41
2023-01-28T14:11:47.631Z,19.42
2023-01-28T14:12:47.679Z,19.41
2023-01-28T14:13:47.679Z,19.41
2023-01-28T14:14:47.683Z,19.42
2023-01-28T14:15:47.717Z,19.42
2023-01-28T14:16:47.727Z,19.42
2023-01-28T14:17:47.745Z,19.42
2023-01-28T14:18:47.766Z,19.42
2023-01-28T14:19:47.797Z,19.42
2023-01-28T14:20:47.806Z,19.43
2023-01-28T14:21:47.834Z,19.43
2023-01-28T14:22:47.867Z,19.42
2023-01-28T14:23:47.857Z,19.42
2023-01-28T14:24:47.888Z,19.42
2023-01-28T14:25:47.904Z,19.42
2023-01-28T14:26:47.933Z,19.42
2023-01-28T14:27:47.936Z,19.42
2023-01-28T14:28:47.964Z,19.42
2023-01-28T14:29:47.995Z,19.42
2023-01-28T14:30:48.072Z,19.41
2023-01-28T14:31:48.092Z,19.41
2023-01-28T14:32:48.019Z,19.42
2023-01-28T14:33:48.046Z,19.41
2023-01-28T14:34:48.049Z,19.42
2023-01-28T14:35:48.056Z,19.41
2023-01-28T14:36:48.070Z,19.42
2023-01-28T14:37:48.087Z,19.42
2023-01-28T14:38:48.110Z,19.42
2023-01-28T14:39:48.113Z,19.42
2023-01-28T14:40:48.157Z,19.42
2023-01-28T14:41:48.198Z,19.42
2023-01-28T14:42:48.277Z,19.42
2023-01-28T14:43:48.315Z,19.41
2023-01-28T14:44:48.370Z,19.40
2023-01-28T14:45:48.414Z,19.41
2023-01-28T14:46:48.552Z,19.41
2023-01-28T14:47:48.508Z,19.41
2023-01-28T14:49:48.602Z,19.41
2023-01-28T14:50:48.653Z,19.40
2023-01-28T14:51:48.698Z,19.41
2023-01-28T14:52:48.743Z,19.40
2023-01-28T14:53:48.825Z,19.40
2023-01-28T14:54:48.867Z,19.40
2023-01-28T14:55:48.901Z,19.41
2023-01-28T14:56:48.945Z,19.40
2023-01-28T14:57:48.990Z,19.40
2023-01-28T14:58:49.040Z,19.40
2023-01-28T14:59:49.090Z,19.40
2023-01-28T15:00:49.143Z,19.40
2023-01-28T15:01:49.217Z,19.39
2023-01-28T15:02:49.310Z,19.40
2023-01-28T15:03:49.307Z,19.41
2023-01-28T15:04:49.340Z,19.40
2023-01-28T15:05:49.391Z,19.40
2023-01-28T15:06:49.436Z,19.40
2023-01-28T15:07:49.496Z,19.40
2023-01-28T15:08:49.545Z,19.41
2023-01-28T15:09:49.601Z,19.40
2023-01-28T15:10:49.655Z,19.41
2023-01-28T15:11:49.703Z,19.40
2023-01-28T15:12:49.748Z,19.40
2023-01-28T15:13:49.805Z,19.41
2023-01-28T15:14:49.851Z,19.40
2023-01-28T15:15:49.894Z,19.41
2023-01-28T15:16:49.969Z,19.40
2023-01-28T15:17:50.073Z,19.40
2023-01-28T15:18:50.065Z,19.40
2023-01-28T15:19:50.117Z,19.40
2023-01-28T15:20:50.164Z,19.41
2023-01-28T15:21:50.234Z,19.40
2023-01-28T15:22:50.293Z,19.40
2023-01-28T15:23:50.340Z,19.40
2023-01-28T15:24:50.403Z,19.40
2023-01-28T15:25:50.470Z,19.39
2023-01-28T15:26:50.518Z,19.39
2023-01-28T15:27:50.548Z,19.40
2023-01-28T15:28:50.619Z,19.39
2023-01-28T15:29:50.673Z,19.39
2023-01-28T15:30:50.753Z,19.39
2023-01-28T15:31:50.816Z,19.38
2023-01-28T15:32:50.832Z,19.38
2023-01-28T15:33:50.893Z,19.38
2023-01-28T15:34:50.931Z,19.38
2023-01-28T15:35:50.990Z,19.38
2023-01-28T15:36:51.044Z,19.38
2023-01-28T15:37:51.100Z,19.38
2023-01-28T15:38:51.149Z,19.38
2023-01-28T15:39:51.588Z,19.38
2023-01-28T15:40:51.246Z,19.39
2023-01-28T15:41:51.298Z,19.38
2023-01-28T15:42:51.359Z,19.39
2023-01-28T15:43:51.401Z,19.39
2023-01-28T15:44:51.504Z,19.39
2023-01-28T15:45:51.506Z,19.39
2023-01-28T15:46:51.580Z,19.38
2023-01-28T15:47:51.706Z,19.39
2023-01-28T15:48:51.671Z,19.40
2023-01-28T15:49:51.751Z,19.39
2023-01-28T15:50:51.784Z,19.39
2023-01-28T15:51:51.833Z,19.40
2023-01-28T15:52:51.894Z,19.39
2023-01-28T15:53:51.961Z,19.40
2023-01-28T15:54:52.011Z,19.39
2023-01-28T15:55:52.059Z,19.40
2023-01-28T15:56:52.115Z,19.39
2023-01-28T15:57:52.168Z,19.40
2023-01-28T15:58:52.217Z,19.40
2023-01-28T16:00:52.369Z,19.40
2023-01-28T16:01:52.387Z,19.40
2023-01-28T16:02:52.488Z,19.40
2023-01-28T16:03:52.503Z,19.39
2023-01-28T16:04:52.560Z,19.40
2023-01-28T16:05:52.613Z,19.40
2023-01-28T16:06:52.677Z,19.40
2023-01-28T16:07:52.729Z,19.39
2023-01-28T16:08:52.862Z,19.40
2023-01-28T16:09:52.877Z,19.40
2023-01-28T16:10:52.922Z,19.40
2023-01-28T16:11:52.988Z,19.40
2023-01-28T17:07:55.560Z,19.38
2023-01-28T17:08:55.615Z,19.37
2023-01-28T17:09:55.643Z,19.37
2023-01-28T17:10:55.679Z,19.37
2023-01-28T17:11:55.796Z,19.37
2023-01-28T17:12:55.745Z,19.37
2023-01-28T17:13:55.779Z,19.37
2023-01-28T17:15:55.867Z,19.36
2023-01-28T17:16:55.875Z,19.36
2023-01-28T17:17:55.906Z,19.37
2023-01-28T17:18:55.946Z,19.37
2023-01-28T17:19:55.978Z,19.37
2023-01-28T17:20:56.010Z,19.37
2023-01-28T17:21:56.064Z,19.37
2023-01-28T17:22:56.080Z,19.37
2023-01-28T17:23:58.175Z,19.36
2023-01-28T17:24:56.133Z,19.36
2023-01-28T17:26:56.155Z,19.36
2023-01-28T17:27:56.165Z,19.36
2023-01-28T17:28:56.175Z,19.36
2023-01-28T17:29:56.176Z,19.36
2023-01-28T17:30:56.212Z,19.36
2023-01-28T17:31:56.258Z,19.35
2023-01-28T17:32:56.272Z,19.36
2023-01-28T17:33:56.244Z,19.36
2023-01-28T17:34:56.247Z,19.35
2023-01-28T17:35:57.756Z,19.35
2023-01-28T17:36:56.255Z,19.35
2023-01-28T17:37:56.260Z,19.35
2023-01-28T17:38:57.156Z,19.36
2023-01-28T17:39:56.279Z,19.36
2023-01-28T17:40:56.294Z,19.36
2023-01-28T17:41:56.323Z,19.36
2023-01-28T17:42:56.313Z,19.35
2023-01-28T17:43:56.338Z,19.36
2023-01-28T17:44:56.325Z,19.36
2023-01-28T17:45:56.388Z,19.35
2023-01-28T17:46:56.359Z,19.36
2023-01-28T17:47:56.361Z,19.36
2023-01-28T17:48:56.363Z,19.36
2023-01-28T17:49:57.573Z,19.36
2023-01-28T17:50:56.419Z,19.35
2023-01-28T17:51:56.399Z,19.36
2023-01-28T17:52:56.467Z,19.36
2023-01-28T17:53:56.418Z,19.36
2023-01-28T17:54:56.431Z,19.35
2023-01-28T17:55:56.439Z,19.35
2023-01-28T17:56:56.451Z,19.35
2023-01-28T17:57:56.445Z,19.35
2023-01-28T17:58:56.452Z,19.34
2023-01-28T17:59:56.479Z,19.35
2023-01-28T18:00:56.528Z,19.34
2023-01-28T18:01:56.526Z,19.35
2023-01-28T18:02:56.522Z,19.36
2023-01-28T18:03:56.531Z,19.35
2023-01-28T18:04:56.541Z,19.35
2023-01-28T18:05:56.545Z,19.35
2023-01-28T18:06:56.571Z,19.35
2023-01-28T18:07:57.126Z,19.34
2023-01-28T18:08:56.592Z,19.34
2023-01-28T18:09:56.633Z,19.35
2023-01-28T18:10:56.598Z,19.35
2023-01-28T18:11:56.625Z,19.35
2023-01-28T18:12:56.664Z,19.35
2023-01-28T18:13:56.694Z,19.35
2023-01-28T18:14:56.739Z,19.35
2023-01-28T18:15:56.781Z,19.36
2023-01-28T18:16:56.820Z,19.35
2023-01-28T18:17:56.864Z,19.35
2023-01-28T18:18:56.881Z,19.36
2023-01-28T18:19:56.923Z,19.35
2023-01-28T18:20:56.980Z,19.35
2023-01-28T18:21:57.081Z,19.35
2023-01-28T18:22:57.049Z,19.36
2023-01-28T18:23:57.105Z,19.35
2023-01-28T18:24:57.137Z,19.36
2023-01-28T18:25:57.185Z,19.36
2023-01-28T18:26:57.220Z,19.35
2023-01-28T18:27:57.255Z,19.36
2023-01-28T18:28:59.084Z,19.36
2023-01-28T18:29:57.392Z,19.35
2023-01-28T18:30:57.378Z,19.35
2023-01-28T18:31:57.503Z,19.36
2023-01-28T18:32:57.418Z,19.35
2023-01-28T18:33:57.457Z,19.35
2023-01-28T18:34:57.562Z,19.36
2023-01-28T18:35:57.521Z,19.36
2023-01-28T18:36:57.583Z,19.35
2023-01-28T18:37:57.608Z,19.35
2023-01-28T18:38:57.640Z,19.35
2023-01-28T18:39:57.731Z,19.35
2023-01-28T18:40:57.723Z,19.35
2023-01-28T18:41:57.784Z,19.35
2023-01-28T18:42:57.852Z,19.35
2023-01-28T18:43:57.843Z,19.35
2023-01-28T18:44:57.885Z,19.35
2023-01-28T18:45:58.007Z,19.36
2023-01-28T18:46:57.986Z,19.36
2023-01-28T18:47:58.025Z,19.36
2023-01-28T18:48:58.060Z,19.35
2023-01-28T18:49:58.097Z,19.35
2023-01-28T18:50:58.139Z,19.36
2023-01-28T18:51:58.652Z,19.36
2023-01-28T18:52:58.289Z,19.36
2023-01-28T18:53:58.276Z,19.36
2023-01-28T18:54:58.296Z,19.36
2023-01-28T18:55:58.350Z,19.36
2023-01-28T18:56:58.450Z,19.36
2023-01-28T18:57:58.442Z,19.37
2023-01-28T18:58:58.475Z,19.36
2023-01-28T18:59:58.580Z,19.37
2023-01-28T19:00:59.542Z,19.36
2023-01-28T19:01:58.624Z,19.36
2023-01-28T19:02:58.655Z,19.36
2023-01-28T19:03:58.685Z,19.36
2023-01-28T19:04:58.738Z,19.36
2023-01-28T19:05:58.788Z,19.37
2023-01-28T19:06:58.835Z,19.35
2023-01-28T19:07:58.875Z,19.36
2023-01-28T19:08:58.913Z,19.35
2023-01-28T19:09:58.962Z,19.36
2023-01-28T19:10:58.993Z,19.36
2023-01-28T19:11:59.055Z,19.36
2023-01-28T19:12:59.091Z,19.35
2023-01-28T19:13:59.139Z,19.35
2023-01-28T19:14:59.161Z,19.35
2023-01-28T19:15:59.215Z,19.35
2023-01-28T19:16:59.277Z,19.35
2023-01-28T19:17:59.299Z,19.35
2023-01-28T19:18:59.428Z,19.36
2023-01-28T19:19:59.389Z,19.35
2023-01-28T19:20:59.429Z,19.35
2023-01-28T19:21:59.463Z,19.35
2023-01-28T19:22:59.518Z,19.35
2023-01-28T19:23:59.600Z,19.35
2023-01-28T19:24:59.592Z,19.34
2023-01-28T19:25:59.619Z,19.35
2023-01-28T19:26:59.657Z,19.35
2023-01-28T19:27:59.706Z,19.34
2023-01-28T19:28:59.753Z,19.34
2023-01-28T19:29:59.765Z,19.34
2023-01-28T19:30:59.857Z,19.33
2023-01-28T19:31:59.905Z,19.33
2023-01-28T19:32:59.895Z,19.33
2023-01-28T19:33:59.961Z,19.34
2023-01-28T19:34:59.961Z,19.34
2023-01-28T19:36:00.049Z,19.33
2023-01-28T19:37:00.034Z,19.33
2023-01-28T19:38:00.102Z,19.33
2023-01-28T19:39:00.137Z,19.33
2023-01-28T19:40:00.156Z,19.33
2023-01-28T19:41:00.182Z,19.33
2023-01-28T19:42:00.216Z,19.33
2023-01-28T19:43:00.267Z,19.34
2023-01-28T19:44:00.315Z,19.33
2023-01-28T19:45:03.045Z,19.34
2023-01-28T19:46:00.448Z,19.34
2023-01-28T19:47:00.375Z,19.35
2023-01-28T19:48:00.397Z,19.34
2023-01-28T19:49:00.393Z,19.34
2023-01-28T19:50:00.404Z,19.34
2023-01-28T19:51:00.407Z,19.35
2023-01-28T19:52:00.424Z,19.34
2023-01-28T19:53:00.450Z,19.34
2023-01-28T19:54:00.444Z,19.34
2023-01-28T19:55:00.467Z,19.34
2023-01-28T19:56:00.470Z,19.34
2023-01-28T19:57:00.483Z,19.34
2023-01-28T19:58:00.493Z,19.34
2023-01-28T19:59:00.504Z,19.34
2023-01-28T20:00:00.503Z,19.33
2023-01-28T20:01:00.503Z,19.34
2023-01-28T20:02:00.517Z,19.34
2023-01-28T20:03:00.529Z,19.34
2023-01-28T20:04:00.577Z,19.35
2023-01-28T20:05:01.299Z,19.34
2023-01-28T20:06:00.561Z,19.34
2023-01-28T20:07:00.562Z,19.34
2023-01-28T20:08:01.094Z,19.34
2023-01-28T20:09:00.670Z,19.34
2023-01-28T20:10:00.593Z,19.34
2023-01-28T20:11:00.589Z,19.34
2023-01-28T20:12:00.600Z,19.34
2023-01-28T20:13:00.667Z,19.34
2023-01-28T20:14:00.608Z,19.33
2023-01-28T20:15:00.766Z,19.34
2023-01-28T20:16:00.640Z,19.33
2023-01-28T20:17:00.630Z,19.34
2023-01-28T20:18:00.650Z,19.34
2023-01-28T20:19:00.660Z,19.33
2023-01-28T20:20:00.661Z,19.33
2023-01-28T20:21:00.671Z,19.34
2023-01-28T20:22:00.686Z,19.34
2023-01-28T20:23:00.692Z,19.33
2023-01-28T20:24:00.798Z,19.34
2023-01-28T20:25:00.777Z,19.33
2023-01-28T20:26:00.721Z,19.34
2023-01-28T20:27:00.727Z,19.34
2023-01-28T20:28:00.738Z,19.34
2023-01-28T20:29:00.735Z,19.34
2023-01-28T20:30:01.062Z,19.35
2023-01-28T20:31:00.787Z,19.34
2023-01-28T20:32:15.558Z,19.34
2023-01-28T20:33:01.743Z,19.34
2023-01-28T20:34:00.760Z,19.33
2023-01-28T20:35:00.776Z,19.34
2023-01-28T20:36:00.763Z,19.34
2023-01-28T20:37:00.766Z,19.34
2023-01-28T20:38:00.775Z,19.34
2023-01-28T20:39:00.791Z,19.35
2023-01-28T20:40:00.770Z,19.34
2023-01-28T20:41:00.782Z,19.34
2023-01-28T20:42:00.784Z,19.35
2023-01-28T20:43:00.816Z,19.35
2023-01-28T20:44:00.829Z,19.34
2023-01-28T20:45:01.105Z,19.34
2023-01-28T20:46:00.850Z,19.34
2023-01-28T20:47:00.858Z,19.34
2023-01-28T20:48:01.679Z,19.35
2023-01-28T20:49:00.948Z,19.35
2023-01-28T20:50:00.979Z,19.35
2023-01-28T20:51:01.684Z,19.35
2023-01-28T20:52:01.067Z,19.34
2023-01-28T20:53:01.108Z,19.34
2023-01-28T20:54:01.221Z,19.35
2023-01-28T20:55:01.207Z,19.35
2023-01-28T20:56:01.244Z,19.35
2023-01-28T20:57:01.303Z,19.34
2023-01-28T20:58:01.336Z,19.35
2023-01-28T20:59:01.392Z,19.35
2023-01-28T21:00:01.426Z,19.35
2023-01-28T21:01:01.462Z,19.35
2023-01-28T21:02:01.507Z,19.35
2023-01-28T21:03:01.605Z,19.35
2023-01-28T21:04:01.602Z,19.34
2023-01-28T21:05:01.629Z,19.35
2023-01-28T21:06:01.670Z,19.34
2023-01-28T21:07:01.702Z,19.34
2023-01-28T21:08:01.753Z,19.35
2023-01-28T21:09:01.820Z,19.35
2023-01-28T21:10:02.545Z,19.35
2023-01-28T21:11:01.888Z,19.34
2023-01-28T21:12:01.915Z,19.34
2023-01-28T21:13:01.955Z,19.34
2023-01-28T21:14:02.007Z,19.33
2023-01-28T21:15:02.031Z,19.34
2023-01-28T21:16:02.064Z,19.34
2023-01-28T21:17:02.171Z,19.33
2023-01-28T21:18:02.201Z,19.33
2023-01-28T21:19:02.183Z,19.33
2023-01-28T21:20:02.209Z,19.33
2023-01-28T21:21:02.269Z,19.34
2023-01-28T21:22:02.367Z,19.34
2023-01-28T21:23:02.333Z,19.34
2023-01-28T21:24:02.404Z,19.35
2023-01-28T21:25:05.286Z,19.34
2023-01-28T21:26:02.449Z,19.35
2023-01-28T21:27:02.439Z,19.35
2023-01-28T21:28:02.462Z,19.35
2023-01-28T21:29:02.479Z,19.35
2023-01-28T21:30:02.501Z,19.34
2023-01-28T21:31:02.548Z,19.35
2023-01-28T21:32:02.577Z,19.34
2023-01-28T21:33:02.522Z,19.34
2023-01-28T21:34:02.558Z,19.34
2023-01-28T21:35:02.564Z,19.34
2023-01-28T21:36:02.700Z,19.34
2023-01-28T21:37:02.590Z,19.34
2023-01-28T21:38:02.633Z,19.35
2023-01-28T21:39:02.636Z,19.34
2023-01-28T21:40:02.634Z,19.34
2023-01-28T21:41:02.638Z,19.34
2023-01-28T21:42:02.649Z,19.35
2023-01-28T21:43:02.683Z,19.35
2023-01-28T21:44:02.697Z,19.34
2023-01-28T21:45:02.696Z,19.34
2023-01-28T21:46:02.751Z,19.34
2023-01-28T21:47:02.707Z,19.34
2023-01-28T21:48:02.737Z,19.34
2023-01-28T21:49:02.749Z,19.35
2023-01-28T21:50:02.770Z,19.34
2023-01-28T21:51:02.763Z,19.34
2023-01-28T21:52:02.783Z,19.33
2023-01-28T21:53:02.789Z,19.33
2023-01-28T21:54:02.807Z,19.33
2023-01-28T21:55:02.846Z,19.33
2023-01-28T21:56:02.847Z,19.34
2023-01-28T21:57:02.857Z,19.33
2023-01-28T21:58:02.868Z,19.34
2023-01-28T21:59:02.894Z,19.34
2023-01-28T22:54:05.634Z,19.33
2023-01-28T22:55:05.615Z,19.34
2023-01-28T23:01:06.000Z,19.33
2023-01-28T23:06:06.333Z,19.33
2023-01-28T23:07:06.396Z,19.33
2023-01-28T23:08:06.527Z,19.34
2023-01-28T23:09:06.542Z,19.33
2023-01-28T23:10:06.607Z,19.34
2023-01-28T23:11:06.670Z,19.33
2023-01-28T23:12:06.800Z,19.34
2023-01-28T23:13:06.837Z,19.33
2023-01-28T23:14:06.886Z,19.34
2023-01-28T23:15:06.962Z,19.33
2023-01-28T23:16:07.020Z,19.33
2023-01-28T23:17:07.123Z,19.34
2023-01-28T23:18:07.161Z,19.34
2023-01-28T23:19:07.221Z,19.34
2023-01-28T23:20:07.284Z,19.34
2023-01-28T23:21:07.362Z,19.34
2023-01-28T23:22:07.420Z,19.34
2023-01-28T23:23:07.488Z,19.33
2023-01-28T23:24:07.571Z,19.33
2023-01-28T23:25:07.628Z,19.33
2023-01-28T23:26:07.689Z,19.33
